Aérodrome :
LOGIN :

S'inscrire | Disclaimer

   EN    FR    IT 

 










Légende :    VFR   VFR Marginal   IFR   IFR Intensif   IFR Très Intensif
Visi : 
Plafond : 
>= 8 km
>= 3000ft
5 à 8 km
1000 à 3000 ft
1500m à 5 km
500 à 1000 ft
800 à 1500m
200 à 500 ft
< 800m
< 200 ft
Symboles :   Orages  Brouillard  Fortes neiges  Fortes précipitations  Vent > 20 kt
SIGMETs :   Divers  Orages  Givrage  Turbulence  Onde Orograph.  Cendres Volcan.






- Altitude de l'aérodrome : 121 ft
- Code IATA : HUY


EGNJ - Humberside

DERNIER METAR :
  • 010850Z 07009KT 0700 R20/0900 FG VV/// 05/05 Q1035

METARs EXPIRÉS :
  • 010820Z 07008KT 0600 R20/0350 FG VV/// 05/05 Q1035
  • 010750Z 04003KT 0600 R20/0350 FG VV/// 04/04 Q1035
  • 010720Z AUTO 04003KT 2200 BR OVC000/// 03/03 Q1035
  • 010650Z AUTO 00000KT 0650 FG OVC000/// 03/03 Q1034
  • 010620Z AUTO VRB02KT 0300 FG OVC000/// 03/03 Q1034

TAF TAF EGNJ
Valide du 01 à 09h jusqu'au 01 à 18h UTC


010802Z 0109/0118 08008KT 2000 BR FEW030
BECMG 0109/0112 9999 NSW BKN010
TEMPO 0112/0118 6000 BKN006
PROB30
TEMPO 0112/0118 3000 BR BKN002
ATIS : +44 1652 682 020



MET'MAP, la Météo Aéronautique d'un coup d'oeil ! - Copyright ORBIFLY Décembre 2007 - Disclaimer

ORBIFLY MET'MAP TEAM :

Programmation & Développement : Alexandra Zaïnal
Sur une idée originale de : Baudouin d'Aumeries
Assistance à la programmation : Marc-Olivier Méhu
Soutien technique & logistique : Manuel Goepfert

Contact : metmap@orbifly.com




SOURCES & CREDITS :

   NOAA